sensor_id;sensor_type;location;lat;lon;timestamp;P1;P2;P0
66395;PMS5003;53207;51.378;-1.342;2022-12-13T00:00:25;11;10;
66395;PMS5003;53207;51.378;-1.342;2022-12-13T00:02:53;12;12;
66395;PMS5003;53207;51.378;-1.342;2022-12-13T00:05:20;12;11;
66395;PMS5003;53207;51.378;-1.342;2022-12-13T00:07:47;11;11;
66395;PMS5003;53207;51.378;-1.342;2022-12-13T00:10:14;10;10;
66395;PMS5003;53207;51.378;-1.342;2022-12-13T00:12:42;14;13;
66395;PMS5003;53207;51.378;-1.342;2022-12-13T00:15:09;12;11;
66395;PMS5003;53207;51.378;-1.342;2022-12-13T00:17:37;9;9;
66395;PMS5003;53207;51.378;-1.342;2022-12-13T00:20:04;10;9;
66395;PMS5003;53207;51.378;-1.342;2022-12-13T00:22:32;16;16;
66395;PMS5003;53207;51.378;-1.342;2022-12-13T00:24:59;12;12;
66395;PMS5003;53207;51.378;-1.342;2022-12-13T00:27:27;12;11;
66395;PMS5003;53207;51.378;-1.342;2022-12-13T00:29:54;11;10;
66395;PMS5003;53207;51.378;-1.342;2022-12-13T00:32:21;13;12;
66395;PMS5003;53207;51.378;-1.342;2022-12-13T00:34:48;12;12;
66395;PMS5003;53207;51.378;-1.342;2022-12-13T00:37:15;11;11;
66395;PMS5003;53207;51.378;-1.342;2022-12-13T00:39:43;10;10;
66395;PMS5003;53207;51.378;-1.342;2022-12-13T00:42:10;11;11;
66395;PMS5003;53207;51.378;-1.342;2022-12-13T00:44:37;12;12;
66395;PMS5003;53207;51.378;-1.342;2022-12-13T00:47:05;10;10;
66395;PMS5003;53207;51.378;-1.342;2022-12-13T00:49:32;15;13;
66395;PMS5003;53207;51.378;-1.342;2022-12-13T00:51:59;12;12;
66395;PMS5003;53207;51.378;-1.342;2022-12-13T00:54:27;12;12;
66395;PMS5003;53207;51.378;-1.342;2022-12-13T00:56:54;12;12;
66395;PMS5003;53207;51.378;-1.342;2022-12-13T00:59:21;11;11;
66395;PMS5003;53207;51.378;-1.342;2022-12-13T01:01:49;14;14;
66395;PMS5003;53207;51.378;-1.342;2022-12-13T01:04:16;11;11;
66395;PMS5003;53207;51.378;-1.342;2022-12-13T01:06:44;15;13;
66395;PMS5003;53207;51.378;-1.342;2022-12-13T01:09:13;12;12;
66395;PMS5003;53207;51.378;-1.342;2022-12-13T01:11:43;13;13;
66395;PMS5003;53207;51.378;-1.342;2022-12-13T01:14:11;12;11;
66395;PMS5003;53207;51.378;-1.342;2022-12-13T01:16:38;12;11;
66395;PMS5003;53207;51.378;-1.342;2022-12-13T01:19:06;12;12;
66395;PMS5003;53207;51.378;-1.342;2022-12-13T01:21:33;12;11;
66395;PMS5003;53207;51.378;-1.342;2022-12-13T01:24:01;10;10;
66395;PMS5003;53207;51.378;-1.342;2022-12-13T01:26:29;14;13;
66395;PMS5003;53207;51.378;-1.342;2022-12-13T01:28:57;12;12;
66395;PMS5003;53207;51.378;-1.342;2022-12-13T01:31:24;12;11;
66395;PMS5003;53207;51.378;-1.342;2022-12-13T01:33:52;12;12;
66395;PMS5003;53207;51.378;-1.342;2022-12-13T01:36:20;12;11;
66395;PMS5003;53207;51.378;-1.342;2022-12-13T01:38:47;12;11;
66395;PMS5003;53207;51.378;-1.342;2022-12-13T01:41:15;16;14;
66395;PMS5003;53207;51.378;-1.342;2022-12-13T01:43:49;12;12;
66395;PMS5003;53207;51.378;-1.342;2022-12-13T01:46:19;12;12;
66395;PMS5003;53207;51.378;-1.342;2022-12-13T01:48:48;11;11;
66395;PMS5003;53207;51.378;-1.342;2022-12-13T01:51:22;13;13;
66395;PMS5003;53207;51.378;-1.342;2022-12-13T01:53:53;9;8;
66395;PMS5003;53207;51.378;-1.342;2022-12-13T01:56:25;12;12;
66395;PMS5003;53207;51.378;-1.342;2022-12-13T01:58:56;11;11;
66395;PMS5003;53207;51.378;-1.342;2022-12-13T02:01:25;12;12;
66395;PMS5003;53207;51.378;-1.342;2022-12-13T02:03:53;12;12;
66395;PMS5003;53207;51.378;-1.342;2022-12-13T02:06:22;11;9;
66395;PMS5003;53207;51.378;-1.342;2022-12-13T02:08:55;10;10;
66395;PMS5003;53207;51.378;-1.342;2022-12-13T02:11:22;10;10;
66395;PMS5003;53207;51.378;-1.342;2022-12-13T02:13:50;12;12;
66395;PMS5003;53207;51.378;-1.342;2022-12-13T02:16:19;13;13;
66395;PMS5003;53207;51.378;-1.342;2022-12-13T02:19:02;10;10;
66395;PMS5003;53207;51.378;-1.342;2022-12-13T02:21:56;11;10;
66395;PMS5003;53207;51.378;-1.342;2022-12-13T02:24:36;15;14;
66395;PMS5003;53207;51.378;-1.342;2022-12-13T02:27:23;10;10;
66395;PMS5003;53207;51.378;-1.342;2022-12-13T02:30:14;13;13;
66395;PMS5003;53207;51.378;-1.342;2022-12-13T02:32:53;10;10;
66395;PMS5003;53207;51.378;-1.342;2022-12-13T02:35:34;12;11;
66395;PMS5003;53207;51.378;-1.342;2022-12-13T02:38:10;12;12;
66395;PMS5003;53207;51.378;-1.342;2022-12-13T02:40:42;11;11;
66395;PMS5003;53207;51.378;-1.342;2022-12-13T02:43:17;12;10;
66395;PMS5003;53207;51.378;-1.342;2022-12-13T02:45:50;14;12;
66395;PMS5003;53207;51.378;-1.342;2022-12-13T02:48:21;12;12;
66395;PMS5003;53207;51.378;-1.342;2022-12-13T02:50:52;13;11;
66395;PMS5003;53207;51.378;-1.342;2022-12-13T02:53:21;10;10;
66395;PMS5003;53207;51.378;-1.342;2022-12-13T02:55:49;11;11;
66395;PMS5003;53207;51.378;-1.342;2022-12-13T02:58:18;10;10;
66395;PMS5003;53207;51.378;-1.342;2022-12-13T03:00:51;11;11;
66395;PMS5003;53207;51.378;-1.342;2022-12-13T03:03:25;11;11;
66395;PMS5003;53207;51.378;-1.342;2022-12-13T03:06:04;11;11;
66395;PMS5003;53207;51.378;-1.342;2022-12-13T03:08:46;12;12;
66395;PMS5003;53207;51.378;-1.342;2022-12-13T03:11:21;13;13;
66395;PMS5003;53207;51.378;-1.342;2022-12-13T03:13:58;9;9;
66395;PMS5003;53207;51.378;-1.342;2022-12-13T03:16:28;9;9;
66395;PMS5003;53207;51.378;-1.342;2022-12-13T03:19:02;10;10;
66395;PMS5003;53207;51.378;-1.342;2022-12-13T03:21:36;10;9;
66395;PMS5003;53207;51.378;-1.342;2022-12-13T03:24:05;11;11;
66395;PMS5003;53207;51.378;-1.342;2022-12-13T03:26:32;11;11;
66395;PMS5003;53207;51.378;-1.342;2022-12-13T03:29:02;11;10;
66395;PMS5003;53207;51.378;-1.342;2022-12-13T03:31:29;12;12;
66395;PMS5003;53207;51.378;-1.342;2022-12-13T03:33:56;11;11;
66395;PMS5003;53207;51.378;-1.342;2022-12-13T03:36:24;11;11;
66395;PMS5003;53207;51.378;-1.342;2022-12-13T03:38:52;11;11;
66395;PMS5003;53207;51.378;-1.342;2022-12-13T03:41:20;9;9;
66395;PMS5003;53207;51.378;-1.342;2022-12-13T03:43:51;12;12;
66395;PMS5003;53207;51.378;-1.342;2022-12-13T03:46:18;12;12;
66395;PMS5003;53207;51.378;-1.342;2022-12-13T03:48:45;12;11;
66395;PMS5003;53207;51.378;-1.342;2022-12-13T03:51:12;12;12;
66395;PMS5003;53207;51.378;-1.342;2022-12-13T03:53:40;9;9;
66395;PMS5003;53207;51.378;-1.342;2022-12-13T03:56:07;11;10;
66395;PMS5003;53207;51.378;-1.342;2022-12-13T03:58:34;11;10;
66395;PMS5003;53207;51.378;-1.342;2022-12-13T04:01:01;10;10;
66395;PMS5003;53207;51.378;-1.342;2022-12-13T04:03:29;9;9;
66395;PMS5003;53207;51.378;-1.342;2022-12-13T04:05:56;11;11;
66395;PMS5003;53207;51.378;-1.342;2022-12-13T04:08:23;11;11;
66395;PMS5003;53207;51.378;-1.342;2022-12-13T04:10:51;10;10;
66395;PMS5003;53207;51.378;-1.342;2022-12-13T04:13:18;13;12;
66395;PMS5003;53207;51.378;-1.342;2022-12-13T04:15:45;10;9;
66395;PMS5003;53207;51.378;-1.342;2022-12-13T04:18:13;11;11;
66395;PMS5003;53207;51.378;-1.342;2022-12-13T04:20:40;10;10;
66395;PMS5003;53207;51.378;-1.342;2022-12-13T04:23:07;9;9;
66395;PMS5003;53207;51.378;-1.342;2022-12-13T04:25:34;11;10;
66395;PMS5003;53207;51.378;-1.342;2022-12-13T04:28:02;11;11;
66395;PMS5003;53207;51.378;-1.342;2022-12-13T04:30:29;11;11;
66395;PMS5003;53207;51.378;-1.342;2022-12-13T04:32:56;11;10;
66395;PMS5003;53207;51.378;-1.342;2022-12-13T04:35:24;10;9;
66395;PMS5003;53207;51.378;-1.342;2022-12-13T04:37:51;8;8;
66395;PMS5003;53207;51.378;-1.342;2022-12-13T04:40:18;9;9;
66395;PMS5003;53207;51.378;-1.342;2022-12-13T04:42:46;10;10;
66395;PMS5003;53207;51.378;-1.342;2022-12-13T04:45:14;9;9;
66395;PMS5003;53207;51.378;-1.342;2022-12-13T04:47:42;12;11;
66395;PMS5003;53207;51.378;-1.342;2022-12-13T04:50:10;10;10;
66395;PMS5003;53207;51.378;-1.342;2022-12-13T04:52:37;10;10;
66395;PMS5003;53207;51.378;-1.342;2022-12-13T04:55:05;9;9;
66395;PMS5003;53207;51.378;-1.342;2022-12-13T04:57:32;11;11;
66395;PMS5003;53207;51.378;-1.342;2022-12-13T05:00:00;8;8;
66395;PMS5003;53207;51.378;-1.342;2022-12-13T05:02:27;11;10;
66395;PMS5003;53207;51.378;-1.342;2022-12-13T05:04:55;10;10;
66395;PMS5003;53207;51.378;-1.342;2022-12-13T05:07:22;9;9;
66395;PMS5003;53207;51.378;-1.342;2022-12-13T05:09:50;10;10;
66395;PMS5003;53207;51.378;-1.342;2022-12-13T05:12:18;9;9;
66395;PMS5003;53207;51.378;-1.342;2022-12-13T05:14:45;9;9;
66395;PMS5003;53207;51.378;-1.342;2022-12-13T05:17:12;9;9;
66395;PMS5003;53207;51.378;-1.342;2022-12-13T05:19:40;10;10;
66395;PMS5003;53207;51.378;-1.342;2022-12-13T05:22:07;9;9;
66395;PMS5003;53207;51.378;-1.342;2022-12-13T05:24:35;9;9;
66395;PMS5003;53207;51.378;-1.342;2022-12-13T05:27:03;9;9;
66395;PMS5003;53207;51.378;-1.342;2022-12-13T05:29:30;9;9;
66395;PMS5003;53207;51.378;-1.342;2022-12-13T05:31:57;8;8;
66395;PMS5003;53207;51.378;-1.342;2022-12-13T05:34:25;9;9;
66395;PMS5003;53207;51.378;-1.342;2022-12-13T05:36:52;9;9;
66395;PMS5003;53207;51.378;-1.342;2022-12-13T05:39:19;8;7;
66395;PMS5003;53207;51.378;-1.342;2022-12-13T05:41:47;10;9;
66395;PMS5003;53207;51.378;-1.342;2022-12-13T05:44:14;11;10;
66395;PMS5003;53207;51.378;-1.342;2022-12-13T05:46:42;11;10;
66395;PMS5003;53207;51.378;-1.342;2022-12-13T05:49:09;13;10;
66395;PMS5003;53207;51.378;-1.342;2022-12-13T05:51:36;8;8;
66395;PMS5003;53207;51.378;-1.342;2022-12-13T05:54:04;9;9;
66395;PMS5003;53207;51.378;-1.342;2022-12-13T05:56:31;10;10;
66395;PMS5003;53207;51.378;-1.342;2022-12-13T05:58:58;11;11;
66395;PMS5003;53207;51.378;-1.342;2022-12-13T06:01:26;11;10;
66395;PMS5003;53207;51.378;-1.342;2022-12-13T06:03:53;11;10;
66395;PMS5003;53207;51.378;-1.342;2022-12-13T06:06:20;12;12;
66395;PMS5003;53207;51.378;-1.342;2022-12-13T06:08:48;9;8;
66395;PMS5003;53207;51.378;-1.342;2022-12-13T06:11:15;9;9;
66395;PMS5003;53207;51.378;-1.342;2022-12-13T06:13:43;9;9;
66395;PMS5003;53207;51.378;-1.342;2022-12-13T06:16:15;9;9;
66395;PMS5003;53207;51.378;-1.342;2022-12-13T06:18:42;9;9;
66395;PMS5003;53207;51.378;-1.342;2022-12-13T06:21:10;8;8;
66395;PMS5003;53207;51.378;-1.342;2022-12-13T06:23:37;9;8;
66395;PMS5003;53207;51.378;-1.342;2022-12-13T06:26:05;9;9;
66395;PMS5003;53207;51.378;-1.342;2022-12-13T06:28:33;10;8;
66395;PMS5003;53207;51.378;-1.342;2022-12-13T06:31:00;10;10;
66395;PMS5003;53207;51.378;-1.342;2022-12-13T06:33:28;8;8;
66395;PMS5003;53207;51.378;-1.342;2022-12-13T06:35:56;12;10;
66395;PMS5003;53207;51.378;-1.342;2022-12-13T06:38:23;12;12;
66395;PMS5003;53207;51.378;-1.342;2022-12-13T06:40:51;8;8;
66395;PMS5003;53207;51.378;-1.342;2022-12-13T06:43:18;9;9;
66395;PMS5003;53207;51.378;-1.342;2022-12-13T06:45:45;10;10;
66395;PMS5003;53207;51.378;-1.342;2022-12-13T06:48:13;12;11;
66395;PMS5003;53207;51.378;-1.342;2022-12-13T06:50:40;9;9;
66395;PMS5003;53207;51.378;-1.342;2022-12-13T06:53:07;10;9;
66395;PMS5003;53207;51.378;-1.342;2022-12-13T06:55:35;10;10;
66395;PMS5003;53207;51.378;-1.342;2022-12-13T06:58:02;9;9;
66395;PMS5003;53207;51.378;-1.342;2022-12-13T07:00:29;9;7;
66395;PMS5003;53207;51.378;-1.342;2022-12-13T07:02:57;9;8;
66395;PMS5003;53207;51.378;-1.342;2022-12-13T07:05:24;9;8;
66395;PMS5003;53207;51.378;-1.342;2022-12-13T07:07:51;8;8;
66395;PMS5003;53207;51.378;-1.342;2022-12-13T07:10:19;9;8;
66395;PMS5003;53207;51.378;-1.342;2022-12-13T07:12:46;7;7;
66395;PMS5003;53207;51.378;-1.342;2022-12-13T07:15:13;8;8;
66395;PMS5003;53207;51.378;-1.342;2022-12-13T07:17:41;9;8;
66395;PMS5003;53207;51.378;-1.342;2022-12-13T07:20:08;7;7;
66395;PMS5003;53207;51.378;-1.342;2022-12-13T07:22:36;8;8;
66395;PMS5003;53207;51.378;-1.342;2022-12-13T07:25:04;7;7;
66395;PMS5003;53207;51.378;-1.342;2022-12-13T07:27:32;6;6;
66395;PMS5003;53207;51.378;-1.342;2022-12-13T07:29:59;6;6;
66395;PMS5003;53207;51.378;-1.342;2022-12-13T07:32:27;7;7;
66395;PMS5003;53207;51.378;-1.342;2022-12-13T07:34:55;7;7;
66395;PMS5003;53207;51.378;-1.342;2022-12-13T07:37:22;7;7;
66395;PMS5003;53207;51.378;-1.342;2022-12-13T07:39:49;7;7;
66395;PMS5003;53207;51.378;-1.342;2022-12-13T07:42:17;8;8;
66395;PMS5003;53207;51.378;-1.342;2022-12-13T07:44:44;7;7;
66395;PMS5003;53207;51.378;-1.342;2022-12-13T07:47:11;8;8;
66395;PMS5003;53207;51.378;-1.342;2022-12-13T07:49:39;9;8;
66395;PMS5003;53207;51.378;-1.342;2022-12-13T07:52:08;8;8;
66395;PMS5003;53207;51.378;-1.342;2022-12-13T07:54:36;8;7;
66395;PMS5003;53207;51.378;-1.342;2022-12-13T07:57:03;5;5;
66395;PMS5003;53207;51.378;-1.342;2022-12-13T07:59:31;6;6;
66395;PMS5003;53207;51.378;-1.342;2022-12-13T08:01:58;7;7;
66395;PMS5003;53207;51.378;-1.342;2022-12-13T08:04:25;8;8;
66395;PMS5003;53207;51.378;-1.342;2022-12-13T08:06:53;6;6;
66395;PMS5003;53207;51.378;-1.342;2022-12-13T08:09:20;8;7;
66395;PMS5003;53207;51.378;-1.342;2022-12-13T08:11:47;9;7;
66395;PMS5003;53207;51.378;-1.342;2022-12-13T08:14:15;6;5;
66395;PMS5003;53207;51.378;-1.342;2022-12-13T08:16:42;7;7;
66395;PMS5003;53207;51.378;-1.342;2022-12-13T08:19:09;7;7;
66395;PMS5003;53207;51.378;-1.342;2022-12-13T08:21:38;8;8;
66395;PMS5003;53207;51.378;-1.342;2022-12-13T08:24:07;7;7;
66395;PMS5003;53207;51.378;-1.342;2022-12-13T08:26:34;8;8;
66395;PMS5003;53207;51.378;-1.342;2022-12-13T08:29:01;7;6;
66395;PMS5003;53207;51.378;-1.342;2022-12-13T08:31:29;7;7;
66395;PMS5003;53207;51.378;-1.342;2022-12-13T08:33:56;7;7;
66395;PMS5003;53207;51.378;-1.342;2022-12-13T08:36:23;8;7;
66395;PMS5003;53207;51.378;-1.342;2022-12-13T08:38:53;5;5;
66395;PMS5003;53207;51.378;-1.342;2022-12-13T08:41:21;7;7;
66395;PMS5003;53207;51.378;-1.342;2022-12-13T08:43:48;6;6;
66395;PMS5003;53207;51.378;-1.342;2022-12-13T08:46:16;7;7;
66395;PMS5003;53207;51.378;-1.342;2022-12-13T08:48:43;5;5;
66395;PMS5003;53207;51.378;-1.342;2022-12-13T08:51:12;8;7;
66395;PMS5003;53207;51.378;-1.342;2022-12-13T08:53:40;4;4;
66395;PMS5003;53207;51.378;-1.342;2022-12-13T08:56:08;6;6;
66395;PMS5003;53207;51.378;-1.342;2022-12-13T08:58:37;7;7;
66395;PMS5003;53207;51.378;-1.342;2022-12-13T09:01:05;8;6;
66395;PMS5003;53207;51.378;-1.342;2022-12-13T09:03:32;6;6;
66395;PMS5003;53207;51.378;-1.342;2022-12-13T09:06:04;5;5;
66395;PMS5003;53207;51.378;-1.342;2022-12-13T09:08:33;9;9;
66395;PMS5003;53207;51.378;-1.342;2022-12-13T09:11:00;6;6;
66395;PMS5003;53207;51.378;-1.342;2022-12-13T09:13:29;5;5;
66395;PMS5003;53207;51.378;-1.342;2022-12-13T09:15:58;8;7;
66395;PMS5003;53207;51.378;-1.342;2022-12-13T09:18:28;8;7;
66395;PMS5003;53207;51.378;-1.342;2022-12-13T09:20:56;6;6;
66395;PMS5003;53207;51.378;-1.342;2022-12-13T09:23:23;6;6;
66395;PMS5003;53207;51.378;-1.342;2022-12-13T09:25:51;7;6;
66395;PMS5003;53207;51.378;-1.342;2022-12-13T09:28:19;8;7;
66395;PMS5003;53207;51.378;-1.342;2022-12-13T09:30:47;6;6;
66395;PMS5003;53207;51.378;-1.342;2022-12-13T09:33:14;5;5;
66395;PMS5003;53207;51.378;-1.342;2022-12-13T09:35:41;6;5;
66395;PMS5003;53207;51.378;-1.342;2022-12-13T09:38:09;6;6;
66395;PMS5003;53207;51.378;-1.342;2022-12-13T09:40:36;6;6;
66395;PMS5003;53207;51.378;-1.342;2022-12-13T09:43:06;6;6;
66395;PMS5003;53207;51.378;-1.342;2022-12-13T09:45:38;6;6;
66395;PMS5003;53207;51.378;-1.342;2022-12-13T09:48:09;6;5;
66395;PMS5003;53207;51.378;-1.342;2022-12-13T09:48:13;5;5;
66395;PMS5003;53207;51.378;-1.342;2022-12-13T09:50:43;6;6;
66395;PMS5003;53207;51.378;-1.342;2022-12-13T09:53:10;6;6;
66395;PMS5003;53207;51.378;-1.342;2022-12-13T09:55:42;5;5;
66395;PMS5003;53207;51.378;-1.342;2022-12-13T09:58:12;5;5;
66395;PMS5003;53207;51.378;-1.342;2022-12-13T10:00:43;4;4;
66395;PMS5003;53207;51.378;-1.342;2022-12-13T10:03:13;7;7;
66395;PMS5003;53207;51.378;-1.342;2022-12-13T10:05:43;5;5;
66395;PMS5003;53207;51.378;-1.342;2022-12-13T10:08:20;5;5;
66395;PMS5003;53207;51.378;-1.342;2022-12-13T10:10:50;7;7;
66395;PMS5003;53207;51.378;-1.342;2022-12-13T10:13:18;6;6;
66395;PMS5003;53207;51.378;-1.342;2022-12-13T10:15:50;5;5;
66395;PMS5003;53207;51.378;-1.342;2022-12-13T10:18:23;8;8;
66395;PMS5003;53207;51.378;-1.342;2022-12-13T10:20:57;9;7;
66395;PMS5003;53207;51.378;-1.342;2022-12-13T10:23:25;6;5;
66395;PMS5003;53207;51.378;-1.342;2022-12-13T10:25:52;7;7;
66395;PMS5003;53207;51.378;-1.342;2022-12-13T10:28:23;7;7;
66395;PMS5003;53207;51.378;-1.342;2022-12-13T10:30:54;7;6;
66395;PMS5003;53207;51.378;-1.342;2022-12-13T10:33:24;8;7;
66395;PMS5003;53207;51.378;-1.342;2022-12-13T10:36:13;6;5;
66395;PMS5003;53207;51.378;-1.342;2022-12-13T10:38:42;7;7;
66395;PMS5003;53207;51.378;-1.342;2022-12-13T10:41:27;7;7;
66395;PMS5003;53207;51.378;-1.342;2022-12-13T10:44:15;8;8;
66395;PMS5003;53207;51.378;-1.342;2022-12-13T10:47:17;8;7;
66395;PMS5003;53207;51.378;-1.342;2022-12-13T10:49:49;8;7;
66395;PMS5003;53207;51.378;-1.342;2022-12-13T10:52:21;7;7;
66395;PMS5003;53207;51.378;-1.342;2022-12-13T10:54:52;8;8;
66395;PMS5003;53207;51.378;-1.342;2022-12-13T10:57:20;7;7;
66395;PMS5003;53207;51.378;-1.342;2022-12-13T10:59:48;6;6;
66395;PMS5003;53207;51.378;-1.342;2022-12-13T11:02:34;7;7;
66395;PMS5003;53207;51.378;-1.342;2022-12-13T11:05:35;7;6;
66395;PMS5003;53207;51.378;-1.342;2022-12-13T11:08:20;7;7;
66395;PMS5003;53207;51.378;-1.342;2022-12-13T11:10:55;8;8;
66395;PMS5003;53207;51.378;-1.342;2022-12-13T11:13:25;8;7;
66395;PMS5003;53207;51.378;-1.342;2022-12-13T11:15:59;7;7;
66395;PMS5003;53207;51.378;-1.342;2022-12-13T11:18:28;6;6;
66395;PMS5003;53207;51.378;-1.342;2022-12-13T11:21:01;9;7;
66395;PMS5003;53207;51.378;-1.342;2022-12-13T11:23:30;6;6;
66395;PMS5003;53207;51.378;-1.342;2022-12-13T11:26:03;9;9;
66395;PMS5003;53207;51.378;-1.342;2022-12-13T11:28:39;8;7;
66395;PMS5003;53207;51.378;-1.342;2022-12-13T11:31:21;8;7;
66395;PMS5003;53207;51.378;-1.342;2022-12-13T11:33:56;7;7;
66395;PMS5003;53207;51.378;-1.342;2022-12-13T11:36:37;6;6;
66395;PMS5003;53207;51.378;-1.342;2022-12-13T11:39:14;7;7;
66395;PMS5003;53207;51.378;-1.342;2022-12-13T11:41:48;8;7;
66395;PMS5003;53207;51.378;-1.342;2022-12-13T11:44:20;9;9;
66395;PMS5003;53207;51.378;-1.342;2022-12-13T11:46:55;7;7;
66395;PMS5003;53207;51.378;-1.342;2022-12-13T11:49:27;8;8;
66395;PMS5003;53207;51.378;-1.342;2022-12-13T11:52:04;7;7;
66395;PMS5003;53207;51.378;-1.342;2022-12-13T11:54:42;4;4;
66395;PMS5003;53207;51.378;-1.342;2022-12-13T11:57:17;6;6;
66395;PMS5003;53207;51.378;-1.342;2022-12-13T11:59:54;7;7;
66395;PMS5003;53207;51.378;-1.342;2022-12-13T12:02:28;7;7;
66395;PMS5003;53207;51.378;-1.342;2022-12-13T12:05:01;7;7;
66395;PMS5003;53207;51.378;-1.342;2022-12-13T12:07:33;8;8;
66395;PMS5003;53207;51.378;-1.342;2022-12-13T12:10:16;5;5;
66395;PMS5003;53207;51.378;-1.342;2022-12-13T12:12:54;7;7;
66395;PMS5003;53207;51.378;-1.342;2022-12-13T12:15:29;8;8;
66395;PMS5003;53207;51.378;-1.342;2022-12-13T12:18:00;7;7;
66395;PMS5003;53207;51.378;-1.342;2022-12-13T12:20:36;8;8;
66395;PMS5003;53207;51.378;-1.342;2022-12-13T12:23:11;6;6;
66395;PMS5003;53207;51.378;-1.342;2022-12-13T12:25:46;8;8;
66395;PMS5003;53207;51.378;-1.342;2022-12-13T12:28:24;7;7;
66395;PMS5003;53207;51.378;-1.342;2022-12-13T12:31:00;7;7;
66395;PMS5003;53207;51.378;-1.342;2022-12-13T12:33:35;9;8;
66395;PMS5003;53207;51.378;-1.342;2022-12-13T12:36:16;6;6;
66395;PMS5003;53207;51.378;-1.342;2022-12-13T12:39:04;6;6;
66395;PMS5003;53207;51.378;-1.342;2022-12-13T12:39:15;6;6;
66395;PMS5003;53207;51.378;-1.342;2022-12-13T12:41:56;10;10;
66395;PMS5003;53207;51.378;-1.342;2022-12-13T12:44:36;7;7;
66395;PMS5003;53207;51.378;-1.342;2022-12-13T12:47:15;10;9;
66395;PMS5003;53207;51.378;-1.342;2022-12-13T12:49:57;7;5;
66395;PMS5003;53207;51.378;-1.342;2022-12-13T12:52:38;7;7;
66395;PMS5003;53207;51.378;-1.342;2022-12-13T12:55:39;9;9;
66395;PMS5003;53207;51.378;-1.342;2022-12-13T12:58:17;7;7;
66395;PMS5003;53207;51.378;-1.342;2022-12-13T13:00:55;8;8;
66395;PMS5003;53207;51.378;-1.342;2022-12-13T13:03:32;7;7;
66395;PMS5003;53207;51.378;-1.342;2022-12-13T13:06:07;7;7;
66395;PMS5003;53207;51.378;-1.342;2022-12-13T13:08:39;7;7;
66395;PMS5003;53207;51.378;-1.342;2022-12-13T13:11:12;7;7;
66395;PMS5003;53207;51.378;-1.342;2022-12-13T13:13:44;6;6;
66395;PMS5003;53207;51.378;-1.342;2022-12-13T13:16:29;9;9;
66395;PMS5003;53207;51.378;-1.342;2022-12-13T13:18:59;8;8;
66395;PMS5003;53207;51.378;-1.342;2022-12-13T13:21:31;8;7;
66395;PMS5003;53207;51.378;-1.342;2022-12-13T13:24:04;9;9;
66395;PMS5003;53207;51.378;-1.342;2022-12-13T13:26:40;6;6;
66395;PMS5003;53207;51.378;-1.342;2022-12-13T13:29:42;8;8;
66395;PMS5003;53207;51.378;-1.342;2022-12-13T13:32:22;9;8;
66395;PMS5003;53207;51.378;-1.342;2022-12-13T13:34:52;8;8;
66395;PMS5003;53207;51.378;-1.342;2022-12-13T13:37:27;8;8;
66395;PMS5003;53207;51.378;-1.342;2022-12-13T13:40:28;7;7;
66395;PMS5003;53207;51.378;-1.342;2022-12-13T13:43:02;7;6;
66395;PMS5003;53207;51.378;-1.342;2022-12-13T13:46:10;7;7;
66395;PMS5003;53207;51.378;-1.342;2022-12-13T13:48:43;8;8;
66395;PMS5003;53207;51.378;-1.342;2022-12-13T13:51:42;8;7;
66395;PMS5003;53207;51.378;-1.342;2022-12-13T13:54:27;10;9;
66395;PMS5003;53207;51.378;-1.342;2022-12-13T13:57:17;10;8;
66395;PMS5003;53207;51.378;-1.342;2022-12-13T14:00:36;8;8;
66395;PMS5003;53207;51.378;-1.342;2022-12-13T14:07:56;8;8;
66395;PMS5003;53207;51.378;-1.342;2022-12-13T14:10:45;10;9;
66395;PMS5003;53207;51.378;-1.342;2022-12-13T14:13:58;9;8;
66395;PMS5003;53207;51.378;-1.342;2022-12-13T14:17:27;9;8;
66395;PMS5003;53207;51.378;-1.342;2022-12-13T14:20:56;9;8;
66395;PMS5003;53207;51.378;-1.342;2022-12-13T14:23:33;9;9;
66395;PMS5003;53207;51.378;-1.342;2022-12-13T14:26:16;6;6;
66395;PMS5003;53207;51.378;-1.342;2022-12-13T14:28:51;8;8;
66395;PMS5003;53207;51.378;-1.342;2022-12-13T14:31:22;8;8;
66395;PMS5003;53207;51.378;-1.342;2022-12-13T14:33:52;10;9;
66395;PMS5003;53207;51.378;-1.342;2022-12-13T14:36:25;9;8;
66395;PMS5003;53207;51.378;-1.342;2022-12-13T14:39:02;10;9;
66395;PMS5003;53207;51.378;-1.342;2022-12-13T14:41:31;10;10;
66395;PMS5003;53207;51.378;-1.342;2022-12-13T14:44:14;9;9;
66395;PMS5003;53207;51.378;-1.342;2022-12-13T14:46:50;10;9;
66395;PMS5003;53207;51.378;-1.342;2022-12-13T14:49:19;13;11;
66395;PMS5003;53207;51.378;-1.342;2022-12-13T14:51:49;13;11;
66395;PMS5003;53207;51.378;-1.342;2022-12-13T14:54:20;10;10;
66395;PMS5003;53207;51.378;-1.342;2022-12-13T14:56:53;11;10;
66395;PMS5003;53207;51.378;-1.342;2022-12-13T14:59:21;10;10;
66395;PMS5003;53207;51.378;-1.342;2022-12-13T15:01:52;10;10;
66395;PMS5003;53207;51.378;-1.342;2022-12-13T15:04:24;9;8;
66395;PMS5003;53207;51.378;-1.342;2022-12-13T15:06:55;10;9;
66395;PMS5003;53207;51.378;-1.342;2022-12-13T15:09:26;10;9;
66395;PMS5003;53207;51.378;-1.342;2022-12-13T15:11:54;10;10;
66395;PMS5003;53207;51.378;-1.342;2022-12-13T15:14:23;10;9;
66395;PMS5003;53207;51.378;-1.342;2022-12-13T15:16:52;9;9;
66395;PMS5003;53207;51.378;-1.342;2022-12-13T15:19:21;10;10;
66395;PMS5003;53207;51.378;-1.342;2022-12-13T15:21:53;9;9;
66395;PMS5003;53207;51.378;-1.342;2022-12-13T15:24:24;9;9;
66395;PMS5003;53207;51.378;-1.342;2022-12-13T15:26:54;8;8;
66395;PMS5003;53207;51.378;-1.342;2022-12-13T15:29:23;9;9;
66395;PMS5003;53207;51.378;-1.342;2022-12-13T15:31:51;9;9;
66395;PMS5003;53207;51.378;-1.342;2022-12-13T15:34:20;8;8;
66395;PMS5003;53207;51.378;-1.342;2022-12-13T15:36:57;9;9;
66395;PMS5003;53207;51.378;-1.342;2022-12-13T15:39:27;8;8;
66395;PMS5003;53207;51.378;-1.342;2022-12-13T15:41:55;11;9;
66395;PMS5003;53207;51.378;-1.342;2022-12-13T15:44:24;9;8;
66395;PMS5003;53207;51.378;-1.342;2022-12-13T15:46:56;10;9;
66395;PMS5003;53207;51.378;-1.342;2022-12-13T15:49:29;12;11;
66395;PMS5003;53207;51.378;-1.342;2022-12-13T15:52:02;9;9;
66395;PMS5003;53207;51.378;-1.342;2022-12-13T15:54:31;9;9;
66395;PMS5003;53207;51.378;-1.342;2022-12-13T15:57:00;9;9;
66395;PMS5003;53207;51.378;-1.342;2022-12-13T15:59:39;10;9;
66395;PMS5003;53207;51.378;-1.342;2022-12-13T16:02:11;8;8;
66395;PMS5003;53207;51.378;-1.342;2022-12-13T16:04:42;10;10;
66395;PMS5003;53207;51.378;-1.342;2022-12-13T16:07:18;10;10;
66395;PMS5003;53207;51.378;-1.342;2022-12-13T16:09:48;8;8;
66395;PMS5003;53207;51.378;-1.342;2022-12-13T16:12:19;9;9;
66395;PMS5003;53207;51.378;-1.342;2022-12-13T16:14:50;8;8;
66395;PMS5003;53207;51.378;-1.342;2022-12-13T16:17:20;8;8;
66395;PMS5003;53207;51.378;-1.342;2022-12-13T16:19:50;11;10;
66395;PMS5003;53207;51.378;-1.342;2022-12-13T16:22:18;9;9;
66395;PMS5003;53207;51.378;-1.342;2022-12-13T16:24:45;9;9;
66395;PMS5003;53207;51.378;-1.342;2022-12-13T16:27:13;9;9;
66395;PMS5003;53207;51.378;-1.342;2022-12-13T16:29:40;10;10;
66395;PMS5003;53207;51.378;-1.342;2022-12-13T16:32:08;9;8;
66395;PMS5003;53207;51.378;-1.342;2022-12-13T16:34:35;12;10;
66395;PMS5003;53207;51.378;-1.342;2022-12-13T16:37:03;9;8;
66395;PMS5003;53207;51.378;-1.342;2022-12-13T16:39:30;9;9;
66395;PMS5003;53207;51.378;-1.342;2022-12-13T16:41:57;11;11;
66395;PMS5003;53207;51.378;-1.342;2022-12-13T16:44:26;9;9;
66395;PMS5003;53207;51.378;-1.342;2022-12-13T16:47:00;10;10;
66395;PMS5003;53207;51.378;-1.342;2022-12-13T16:49:28;11;10;